Time;durP1;ratioP1;P1;durP2;ratioP2;P2;SDS_P1;SDS_P2;PMS_P1;PMS_P2;Temp;Humidity;BMP_temperature;BMP_pressure;BME280_temperature;BME280_humidity;BME280_pressure;Samples;Min_cycle;Max_cycle;Signal;HPM_P1;HPM_P2
2022/04/14 00:02:10;;;;;;;37.50;33.47;;;;;;;11.27;100.00;100980.19;5027029;28;20024;-58
2022/04/14 00:04:35;;;;;;;38.33;34.28;;;;;;;11.28;100.00;100982.78;5025904;28;20856;-58
2022/04/14 00:07:04;;;;;;;37.05;33.25;;;;;;;11.23;100.00;100976.84;5026535;28;20028;-58
2022/04/14 00:09:29;;;;;;;35.78;30.83;;;;;;;11.21;100.00;100980.47;5024965;28;20047;-58
2022/04/14 00:11:55;;;;;;;35.30;28.50;;;;;;;11.14;100.00;100987.75;5024531;28;20090;-58
2022/04/14 00:14:21;;;;;;;34.75;31.10;;;;;;;11.09;100.00;100987.09;5025403;28;20043;-58
2022/04/14 00:16:46;;;;;;;33.67;28.23;;;;;;;11.01;100.00;100977.84;5025640;28;20024;-58
2022/04/14 00:19:12;;;;;;;31.73;26.90;;;;;;;10.87;100.00;100964.41;5026124;28;20081;-58
2022/04/14 00:21:37;;;;;;;31.15;22.63;;;;;;;10.87;100.00;100957.38;5027647;28;20025;-58
2022/04/14 00:24:03;;;;;;;27.83;24.88;;;;;;;10.86;100.00;100952.19;5032355;28;20122;-58
2022/04/14 00:26:28;;;;;;;32.47;27.35;;;;;;;10.96;100.00;100969.28;5031805;28;20044;-58
2022/04/14 00:28:54;;;;;;;34.83;26.38;;;;;;;10.95;100.00;100976.31;5030889;28;20079;-58
2022/04/14 00:31:19;;;;;;;31.33;25.80;;;;;;;10.92;100.00;100973.81;5030226;28;20024;-59
2022/04/14 00:33:44;;;;;;;29.52;26.35;;;;;;;10.87;100.00;100972.31;5029993;28;20086;-58
2022/04/14 00:36:10;;;;;;;30.92;25.13;;;;;;;10.85;100.00;100976.78;5029784;28;20864;-58
2022/04/14 00:38:35;;;;;;;24.60;22.05;;;;;;;10.83;100.00;100971.56;5029074;28;20918;-58
2022/04/14 00:41:01;;;;;;;24.33;21.58;;;;;;;10.79;100.00;100980.50;5012856;28;20067;-58
2022/04/14 00:43:33;;;;;;;22.58;20.38;;;;;;;10.67;100.00;100963.47;5028675;28;20043;-58
2022/04/14 00:46:02;;;;;;;25.35;20.85;;;;;;;10.58;100.00;100962.97;5028497;28;20063;-58
2022/04/14 00:48:29;;;;;;;24.90;18.60;;;;;;;10.61;100.00;100978.66;5028451;28;20131;-58
2022/04/14 00:50:55;;;;;;;24.33;19.42;;;;;;;10.52;100.00;100974.63;5011172;28;20234;-58
2022/04/14 00:53:21;;;;;;;25.17;18.35;;;;;;;10.51;100.00;100982.56;5027760;28;20870;-58
2022/04/14 00:55:47;;;;;;;22.85;19.30;;;;;;;10.44;100.00;100978.47;5034108;28;20035;-58
2022/04/14 00:58:12;;;;;;;20.38;18.23;;;;;;;10.47;100.00;100980.97;5048152;28;20032;-59
2022/04/14 01:00:38;;;;;;;20.65;18.65;;;;;;;10.39;100.00;100988.31;5048019;28;20135;-58
2022/04/14 01:03:04;;;;;;;26.88;19.13;;;;;;;10.30;100.00;100963.28;5048398;28;20857;-58
2022/04/14 01:05:29;;;;;;;21.83;19.45;;;;;;;10.43;100.00;100987.25;5030127;28;20031;-58
2022/04/14 01:07:56;;;;;;;22.98;16.95;;;;;;;10.38;100.00;100981.31;5030080;28;20915;-58
2022/04/14 01:10:22;;;;;;;22.38;17.58;;;;;;;10.42;100.00;100988.16;5047685;28;20028;-58
2022/04/14 01:12:48;;;;;;;23.48;18.40;;;;;;;10.41;100.00;100983.84;5030044;28;20035;-58
2022/04/14 01:15:14;;;;;;;19.63;16.90;;;;;;;10.38;100.00;100981.31;5047733;28;20024;-58
2022/04/14 01:17:40;;;;;;;18.10;16.25;;;;;;;10.39;100.00;100975.16;5047900;28;20028;-58
2022/04/14 01:20:06;;;;;;;17.67;15.88;;;;;;;10.38;100.00;100978.69;5048286;28;20123;-58
2022/04/14 01:22:35;;;;;;;17.92;15.20;;;;;;;10.37;100.00;100974.38;5048933;28;20024;-58
2022/04/14 01:25:01;;;;;;;14.80;12.70;;;;;;;10.36;100.00;100975.28;5049037;28;20035;-59
2022/04/14 01:27:28;;;;;;;16.30;13.18;;;;;;;10.35;100.00;100976.19;5047858;28;20039;-58
2022/04/14 01:29:53;;;;;;;13.65;12.23;;;;;;;10.24;100.00;100966.13;5049207;28;20131;-58
2022/04/14 01:32:19;;;;;;;16.65;13.13;;;;;;;10.13;100.00;100963.91;5050974;28;20931;-58
2022/04/14 01:34:45;;;;;;;14.38;12.70;;;;;;;10.23;100.00;100985.44;5067771;28;20038;-58
2022/04/14 01:37:11;;;;;;;16.65;11.98;;;;;;;10.20;100.00;100983.78;5064667;28;20792;-58
2022/04/14 01:39:37;;;;;;;12.73;11.05;;;;;;;10.03;100.00;100954.69;5048622;28;20768;-58
2022/04/14 01:42:03;;;;;;;18.92;11.88;;;;;;;10.17;100.00;100986.50;5048746;28;20917;-58
2022/04/14 01:44:28;;;;;;;13.60;11.50;;;;;;;10.09;100.00;100980.69;5047135;28;20401;-58
2022/04/14 01:46:53;;;;;;;11.98;10.55;;;;;;;10.18;100.00;100988.22;5048555;28;20063;-58
2022/04/14 01:49:19;;;;;;;12.32;10.93;;;;;;;10.14;100.00;100984.00;5047863;28;20036;-58
2022/04/14 01:51:44;;;;;;;13.93;10.38;;;;;;;10.13;100.00;100982.28;5048389;28;20877;-58
2022/04/14 01:54:10;;;;;;;13.48;10.60;;;;;;;10.07;100.00;100972.00;5029002;28;20203;-59
2022/04/14 01:56:35;;;;;;;15.32;12.07;;;;;;;10.09;100.00;100980.69;5047885;28;20024;-58
2022/04/14 01:59:01;;;;;;;12.98;11.38;;;;;;;10.11;100.00;100981.47;5049660;28;20828;-58
2022/04/14 02:01:26;;;;;;;13.52;11.15;;;;;;;10.08;100.00;100984.22;5048208;28;20035;-58
2022/04/14 02:03:51;;;;;;;14.70;12.18;;;;;;;9.99;100.00;100974.09;5031218;28;20892;-58
2022/04/14 02:06:18;;;;;;;15.55;13.73;;;;;;;10.03;100.00;100985.31;5047545;28;20183;-59
2022/04/14 02:08:43;;;;;;;13.13;11.25;;;;;;;10.02;100.00;100981.84;5047854;28;20071;-58
2022/04/14 02:11:10;;;;;;;12.88;11.55;;;;;;;10.00;100.00;100978.44;5048198;28;20027;-58
2022/04/14 02:13:36;;;;;;;13.98;12.10;;;;;;;9.99;100.00;100973.22;5047011;28;20579;-59
2022/04/14 02:16:02;;;;;;;17.02;13.05;;;;;;;10.01;100.00;100977.50;5046503;28;20028;-58
2022/04/14 02:18:27;;;;;;;14.43;12.93;;;;;;;10.00;100.00;100978.44;5047962;28;20920;-58
2022/04/14 02:20:53;;;;;;;14.00;11.50;;;;;;;9.99;100.00;100974.09;5046308;28;20056;-58
2022/04/14 02:23:18;;;;;;;14.45;12.00;;;;;;;9.95;100.00;100963.75;5047742;28;20829;-58
2022/04/14 02:25:44;;;;;;;11.80;10.70;;;;;;;9.92;100.00;100969.13;5047590;28;20035;-59
2022/04/14 02:28:09;;;;;;;14.32;11.02;;;;;;;9.80;100.00;100946.81;5046302;28;20040;-58
2022/04/14 02:30:35;;;;;;;12.57;11.23;;;;;;;9.87;100.00;100969.28;5046743;28;20028;-58
2022/04/14 02:33:02;;;;;;;12.68;11.40;;;;;;;9.89;100.00;100967.47;5046572;28;20151;-58
2022/04/14 02:35:29;;;;;;;13.52;12.13;;;;;;;9.92;100.00;100983.09;5046067;28;20086;-58
2022/04/14 02:37:56;;;;;;;13.68;11.80;;;;;;;9.82;100.00;100968.63;5046856;28;20027;-59
2022/04/14 02:40:24;;;;;;;17.50;12.40;;;;;;;9.85;100.00;100971.13;5046239;28;20131;-58
2022/04/14 02:42:50;;;;;;;19.73;15.35;;;;;;;9.79;100.00;100960.88;5045869;28;20032;-58
2022/04/14 02:45:15;;;;;;;18.60;14.18;;;;;;;9.82;100.00;100966.00;5046455;28;20086;-58
2022/04/14 02:47:41;;;;;;;17.92;13.27;;;;;;;9.78;100.00;100953.91;5046678;28;20027;-58
2022/04/14 02:50:07;;;;;;;15.60;14.02;;;;;;;9.78;100.00;100959.16;5045868;28;20882;-58
2022/04/14 02:52:32;;;;;;;13.75;12.20;;;;;;;9.75;100.00;100959.25;5045864;28;20020;-58
2022/04/14 02:54:58;;;;;;;12.90;10.93;;;;;;;9.74;100.00;100962.78;5046724;28;20038;-58
2022/04/14 02:57:23;;;;;;;12.20;10.90;;;;;;;9.73;100.00;100958.47;5047410;28;20028;-58
2022/04/14 02:59:48;;;;;;;13.95;11.43;;;;;;;9.66;100.00;100949.97;5048146;28;20923;-58
2022/04/14 03:02:14;;;;;;;13.52;11.40;;;;;;;9.74;100.00;100960.16;5046285;28;20028;-59
2022/04/14 03:04:39;;;;;;;15.23;10.77;;;;;;;9.63;100.00;100950.06;5045749;28;20061;-59
2022/04/14 03:07:05;;;;;;;12.75;11.15;;;;;;;9.75;100.00;100985.50;5047311;28;20900;-58
2022/04/14 03:09:30;;;;;;;13.45;11.32;;;;;;;9.73;100.00;100974.22;5046832;28;20024;-58
2022/04/14 03:11:56;;;;;;;12.38;10.52;;;;;;;9.71;100.00;100976.88;5046615;28;20885;-58
2022/04/14 03:14:21;;;;;;;15.50;10.88;;;;;;;9.69;100.00;100975.25;5046018;28;20024;-58
2022/04/14 03:16:46;;;;;;;11.88;10.27;;;;;;;9.66;100.00;100980.59;5045534;28;20117;-58
2022/04/14 03:19:12;;;;;;;13.50;12.13;;;;;;;9.65;100.00;100981.50;5046206;28;20035;-58
2022/04/14 03:21:38;;;;;;;12.00;10.75;;;;;;;9.61;100.00;100972.91;5047078;28;20034;-58
2022/04/14 03:24:03;;;;;;;13.13;11.57;;;;;;;9.58;100.00;100959.03;5045876;28;20880;-58
2022/04/14 03:26:29;;;;;;;11.43;10.25;;;;;;;9.57;100.00;100973.06;5047082;28;20028;-58
2022/04/14 03:28:54;;;;;;;11.90;9.95;;;;;;;9.51;100.00;100968.03;5045897;28;20879;-58
2022/04/14 03:31:19;;;;;;;11.55;10.40;;;;;;;9.53;100.00;100974.94;5047014;28;20032;-58
2022/04/14 03:33:45;;;;;;;12.98;11.43;;;;;;;9.52;100.00;100982.88;5046937;28;20024;-58
2022/04/14 03:36:10;;;;;;;11.13;9.23;;;;;;;9.52;100.00;100988.97;5045580;28;20142;-58
2022/04/14 03:38:36;;;;;;;12.55;11.05;;;;;;;9.47;100.00;100972.53;5045504;28;20997;-58
2022/04/14 03:41:05;;;;;;;11.05;9.95;;;;;;;9.44;100.00;100979.66;5045626;28;20020;-58
2022/04/14 03:43:34;;;;;;;13.15;10.20;;;;;;;9.40;100.00;100983.31;5046927;28;20024;-58
2022/04/14 03:46:00;;;;;;;10.30;9.18;;;;;;;9.21;100.00;100956.91;5046577;28;20909;-59
2022/04/14 03:48:25;;;;;;;12.60;10.98;;;;;;;9.31;100.00;100965.28;5046500;28;20036;-58
2022/04/14 03:50:51;;;;;;;10.98;9.80;;;;;;;9.36;100.00;100976.47;5046304;28;20032;-58
2022/04/14 03:53:18;;;;;;;12.55;10.40;;;;;;;9.34;100.00;100980.91;5045250;28;20063;-58
2022/04/14 03:55:43;;;;;;;13.85;10.55;;;;;;;9.25;100.00;100971.63;5046235;28;20093;-59
2022/04/14 03:58:09;;;;;;;13.13;10.93;;;;;;;9.30;100.00;100987.16;5048800;28;20063;-58
2022/04/14 04:00:34;;;;;;;11.05;9.93;;;;;;;9.30;100.00;100993.28;5049048;28;20891;-58
2022/04/14 04:03:00;;;;;;;12.80;11.57;;;;;;;9.26;100.00;100981.16;5049662;28;20135;-59
2022/04/14 04:05:25;;;;;;;14.73;11.85;;;;;;;9.22;100.00;100984.84;5051008;28;20110;-58
2022/04/14 04:07:50;;;;;;;15.30;11.98;;;;;;;9.21;100.00;100999.72;5050761;28;20028;-58
2022/04/14 04:10:16;;;;;;;14.23;12.73;;;;;;;9.21;100.00;100990.97;5048662;28;20287;-58
2022/04/14 04:12:41;;;;;;;18.23;12.63;;;;;;;9.20;100.00;100984.00;5048526;28;20024;-59
2022/04/14 04:15:07;;;;;;;13.77;12.07;;;;;;;9.18;100.00;100981.47;5049050;28;20090;-58
2022/04/14 04:17:33;;;;;;;21.80;12.27;;;;;;;9.11;100.00;100977.34;5050554;28;20127;-58
2022/04/14 04:19:58;;;;;;;13.85;12.55;;;;;;;9.17;100.00;100994.63;5049674;28;20024;-58
2022/04/14 04:22:24;;;;;;;15.93;14.23;;;;;;;9.14;100.00;100990.34;5052328;28;20969;-58
2022/04/14 04:24:49;;;;;;;22.25;14.70;;;;;;;9.17;100.00;100998.09;5051439;28;20028;-58
2022/04/14 04:27:14;;;;;;;17.75;13.63;;;;;;;9.15;100.00;100999.06;5050773;28;20897;-58
2022/04/14 04:29:40;;;;;;;16.35;14.82;;;;;;;9.13;100.00;100987.75;5051577;28;20059;-58
2022/04/14 04:32:06;;;;;;;13.85;12.05;;;;;;;9.05;100.00;100985.44;5050900;28;20935;-58
2022/04/14 04:34:31;;;;;;;14.13;12.43;;;;;;;9.06;100.00;101005.47;5028953;28;20909;-59
2022/04/14 04:36:57;;;;;;;14.40;12.35;;;;;;;8.93;100.00;100991.06;5047814;28;20126;-58
2022/04/14 04:39:22;;;;;;;15.35;13.32;;;;;;;8.91;100.00;100989.41;5049711;28;20035;-58
2022/04/14 04:41:48;;;;;;;15.60;13.60;;;;;;;8.93;100.00;100991.06;5046627;28;20028;-59
2022/04/14 04:44:13;;;;;;;17.30;14.70;;;;;;;8.81;100.00;100967.91;5047692;28;20032;-59
2022/04/14 04:46:38;;;;;;;17.67;15.93;;;;;;;8.95;100.00;101002.38;5047710;28;20042;-58
2022/04/14 04:49:04;;;;;;;19.92;16.63;;;;;;;8.85;100.00;100984.38;5047244;28;20032;-58
2022/04/14 04:51:29;;;;;;;19.48;16.85;;;;;;;8.93;100.00;101004.16;5047768;28;20129;-58
2022/04/14 04:53:55;;;;;;;18.45;15.82;;;;;;;8.90;100.00;100993.78;5047156;28;20034;-59
2022/04/14 04:56:20;;;;;;;23.13;17.35;;;;;;;8.85;100.00;101000.97;5048708;28;20036;-58
2022/04/14 04:58:46;;;;;;;23.90;18.58;;;;;;;8.80;100.00;100996.78;5047184;28;20032;-58
2022/04/14 05:01:12;;;;;;;20.23;17.65;;;;;;;8.66;100.00;100985.00;5047143;28;20036;-59
2022/04/14 05:03:37;;;;;;;21.17;19.02;;;;;;;8.74;100.00;101008.31;5046976;28;20024;-58
2022/04/14 05:06:03;;;;;;;24.40;19.10;;;;;;;8.67;100.00;101001.56;5046803;28;20060;-58
2022/04/14 05:08:28;;;;;;;23.30;18.17;;;;;;;8.66;100.00;101002.47;5045377;28;20150;-59
2022/04/14 05:10:53;;;;;;;20.50;17.67;;;;;;;8.50;100.00;100989.03;5049583;28;20038;-59
2022/04/14 05:13:19;;;;;;;21.58;18.33;;;;;;;8.49;100.00;101008.25;5049097;28;20040;-59
2022/04/14 05:15:44;;;;;;;18.70;16.13;;;;;;;8.51;100.00;101026.53;5050930;28;20032;-59
2022/04/14 05:18:10;;;;;;;17.80;15.93;;;;;;;8.45;100.00;101022.34;5051500;28;20043;-58
2022/04/14 05:20:35;;;;;;;19.80;17.17;;;;;;;8.41;100.00;101036.47;5050764;28;20030;-57
2022/04/14 05:23:02;;;;;;;22.45;18.73;;;;;;;8.37;100.00;101031.34;5049267;28;20759;-58
2022/04/14 05:25:28;;;;;;;21.15;16.63;;;;;;;8.32;100.00;101033.25;5049819;28;20164;-57
2022/04/14 05:27:53;;;;;;;22.42;20.10;;;;;;;8.29;100.00;101030.72;5050143;28;20157;-58
2022/04/14 05:30:18;;;;;;;26.73;21.80;;;;;;;8.29;100.00;101042.06;5049630;28;20035;-58
2022/04/14 05:32:44;;;;;;;23.05;20.70;;;;;;;8.25;100.00;101032.53;5047975;28;20038;-58
2022/04/14 05:35:10;;;;;;;25.48;22.00;;;;;;;8.28;100.00;101049.94;5047784;28;20028;-58
2022/04/14 05:37:36;;;;;;;26.23;22.83;;;;;;;8.29;100.00;101057.75;5047844;28;20020;-58
2022/04/14 05:40:05;;;;;;;23.48;20.88;;;;;;;8.28;100.00;101058.66;5030168;28;20888;-58
2022/04/14 05:42:31;;;;;;;23.77;21.35;;;;;;;8.21;100.00;101051.88;5047920;28;20037;-58
2022/04/14 05:44:58;;;;;;;24.80;21.92;;;;;;;8.29;100.00;101070.00;5048094;28;20123;-58
2022/04/14 05:47:24;;;;;;;26.50;21.58;;;;;;;8.21;100.00;101060.56;5049350;28;20150;-58
2022/04/14 05:49:50;;;;;;;25.58;22.73;;;;;;;8.20;100.00;101065.88;5048297;28;20028;-58
2022/04/14 05:52:16;;;;;;;32.00;27.33;;;;;;;8.27;100.00;101069.16;5048390;28;20038;-59
2022/04/14 05:54:41;;;;;;;38.97;29.58;;;;;;;8.29;100.00;101063.00;5048011;28;20024;-58
2022/04/14 05:57:07;;;;;;;37.88;29.45;;;;;;;8.26;100.00;101063.06;5031478;28;20028;-58
2022/04/14 05:59:32;;;;;;;40.50;34.75;;;;;;;8.40;100.00;101070.53;5047802;28;20035;-58
2022/04/14 06:01:58;;;;;;;41.30;36.80;;;;;;;8.49;100.00;101078.09;5049299;28;20078;-58
2022/04/14 06:04:23;;;;;;;51.33;39.65;;;;;;;8.51;100.00;101068.44;5045361;28;20060;-58
2022/04/14 06:06:48;;;;;;;46.13;40.58;;;;;;;8.64;100.00;101075.00;5046482;28;20844;-58
2022/04/14 06:09:14;;;;;;;53.20;42.95;;;;;;;8.64;100.00;101059.31;5044624;28;20027;-58
2022/04/14 06:11:39;;;;;;;54.63;43.28;;;;;;;8.77;100.00;101071.09;5047235;28;20028;-58
2022/04/14 06:14:04;;;;;;;71.05;49.22;;;;;;;8.95;100.00;101070.50;5048499;28;20530;-58
2022/04/14 06:16:31;;;;;;;62.00;46.42;;;;;;;9.05;100.00;101066.69;5045773;28;20024;-60
2022/04/14 06:18:57;;;;;;;57.85;48.95;;;;;;;9.22;100.00;101072.22;5033618;28;20030;-58
2022/04/14 06:21:22;;;;;;;58.78;48.00;;;;;;;9.35;100.00;101063.94;5026447;28;20042;-58
2022/04/14 06:23:47;;;;;;;57.63;46.72;;;;;;;9.42;100.00;101061.03;5028907;28;20024;-58
2022/04/14 06:26:13;;;;;;;70.10;49.03;;;;;;;9.56;100.00;101057.94;5026744;28;20044;-58
2022/04/14 06:28:39;;;;;;;65.30;47.75;;;;;;;9.75;100.00;101069.47;5028086;28;20040;-58
2022/04/14 06:31:04;;;;;;;73.80;52.92;;;;;;;9.90;100.00;101082.03;5031345;28;20041;-58
2022/04/14 06:33:30;;;;;;;74.75;55.17;;;;;;;9.98;100.00;101066.88;5032313;28;20148;-58
2022/04/14 06:35:58;;;;;;;65.35;51.08;;;;;;;9.99;100.00;101052.84;5056108;28;20873;-59
2022/04/14 06:38:26;;;;;;;71.38;54.33;;;;;;;10.25;100.00;101079.00;5065179;28;20024;-58
2022/04/14 06:40:51;;;;;;;78.03;53.85;;;;;;;10.40;100.00;101079.34;5062823;28;20823;-58
2022/04/14 06:43:16;;;;;;;68.95;53.42;;;;;;;10.44;100.00;101076.53;5067410;28;20024;-58
2022/04/14 06:45:42;;;;;;;67.75;51.97;;;;;;;10.53;100.00;101075.31;5068915;28;20020;-58
2022/04/14 06:48:08;;;;;;;75.35;58.22;;;;;;;10.55;100.00;101076.97;5067075;28;20056;-59
2022/04/14 06:50:33;;;;;;;75.75;55.00;;;;;;;10.59;100.00;101080.31;5068764;28;20032;-58
2022/04/14 06:52:59;;;;;;;70.05;52.40;;;;;;;10.59;100.00;101082.94;5068894;28;20028;-58
2022/04/14 06:55:24;;;;;;;85.13;56.40;;;;;;;10.65;100.00;101086.19;5069196;28;20139;-58
2022/04/14 06:57:50;;;;;;;80.28;56.15;;;;;;;10.70;100.00;101073.75;5068268;28;20036;-58
2022/04/14 07:00:15;;;;;;;87.63;57.50;;;;;;;10.90;100.00;101091.34;5067746;28;20028;-59
2022/04/14 07:02:52;;;;;;;89.45;62.05;;;;;;;11.03;100.00;101084.66;5068229;28;20086;-60
2022/04/14 07:05:18;;;;;;;74.45;58.88;;;;;;;11.14;100.00;101085.09;5068510;28;20039;-58
2022/04/14 07:07:43;;;;;;;85.55;61.38;;;;;;;11.20;100.00;101094.47;5068365;28;20034;-58
2022/04/14 07:10:10;;;;;;;78.75;58.22;;;;;;;11.29;100.00;101088.81;5064733;28;20813;-58
2022/04/14 07:12:36;;;;;;;75.38;59.35;;;;;;;11.27;100.00;101074.91;5060786;28;20020;-58
2022/04/14 07:15:01;;;;;;;84.60;64.93;;;;;;;11.49;100.00;101101.16;5056736;28;20035;-58
2022/04/14 07:17:27;;;;;;;95.18;65.63;;;;;;;11.57;100.00;101093.78;5063449;28;20024;-58
2022/04/14 07:19:52;;;;;;;84.00;63.80;;;;;;;11.60;100.00;101077.84;5062963;28;20137;-58
2022/04/14 07:22:18;;;;;;;75.60;58.70;;;;;;;11.70;100.00;101090.59;5042289;28;20032;-58
2022/04/14 07:24:47;;;;;;;82.25;64.25;;;;;;;11.74;100.00;101086.91;5071967;28;20038;-58
2022/04/14 07:27:13;;;;;;;85.50;62.70;;;;;;;11.86;100.00;101095.19;5077395;28;20039;-58
2022/04/14 07:29:38;;;;;;;82.53;62.40;;;;;;;12.02;100.00;101096.22;5063404;28;20062;-58
2022/04/14 07:32:04;;;;;;;78.97;61.58;;;;;;;12.12;100.00;101093.09;5051122;28;20028;-58
2022/04/14 07:34:29;;;;;;;72.70;60.60;;;;;;;12.29;100.00;101103.72;5054246;28;20113;-58
2022/04/14 07:36:55;;;;;;;83.32;59.85;;;;;;;12.38;100.00;101098.94;5051505;28;20055;-58
2022/04/14 07:39:20;;;;;;;78.70;62.38;;;;;;;12.47;100.00;101088.00;5051110;28;20035;-58
2022/04/14 07:41:46;;;;;;;68.10;54.22;;;;;;;12.59;100.00;101098.81;5032330;28;20038;-59
2022/04/14 07:44:11;;;;;;;65.75;54.03;;;;;;;12.67;100.00;101101.09;5050360;28;20894;-58
2022/04/14 07:46:38;;;;;;;70.07;53.03;;;;;;;12.82;100.00;101110.88;5049464;28;20028;-58
2022/04/14 07:49:05;;;;;;;71.10;54.15;;;;;;;12.91;100.00;101110.44;5049031;28;20024;-58
2022/04/14 07:51:30;;;;;;;61.90;50.65;;;;;;;12.91;100.00;101094.59;5049797;28;20036;-58
2022/04/14 07:53:55;;;;;;;58.25;50.67;;;;;;;13.01;100.00;101095.88;5049008;28;20028;-58
2022/04/14 07:56:22;;;;;;;55.88;48.50;;;;;;;13.16;100.00;101104.84;5048487;28;20393;-58
2022/04/14 07:58:50;;;;;;;60.17;47.60;;;;;;;13.25;100.00;101114.94;5048367;28;20030;-58
2022/04/14 08:01:18;;;;;;;56.13;45.15;;;;;;;13.23;100.00;101086.00;5049546;28;20032;-58
2022/04/14 08:03:47;;;;;;;53.53;45.45;;;;;;;13.44;100.00;101114.91;5048479;28;20077;-58
2022/04/14 08:06:15;;;;;;;52.22;43.47;;;;;;;13.43;100.00;101098.19;5048790;28;20031;-58
2022/04/14 08:08:41;;;;;;;52.25;45.42;;;;;;;13.64;100.00;101112.09;5048494;28;20051;-58
2022/04/14 08:11:08;;;;;;;50.08;42.50;;;;;;;13.77;100.00;101119.31;5047749;28;20034;-59
2022/04/14 08:13:37;;;;;;;57.58;44.17;;;;;;;13.84;100.00;101104.00;5047936;28;20039;-58
2022/04/14 08:16:06;;;;;;;53.40;42.33;;;;;;;13.83;100.00;101089.06;5050196;28;20024;-58
2022/04/14 08:18:39;;;;;;;49.38;39.75;;;;;;;14.09;100.00;101122.88;5031302;28;20024;-58
2022/04/14 08:21:06;;;;;;;45.40;40.33;;;;;;;14.24;100.00;101135.31;5049249;28;20036;-58
2022/04/14 08:23:31;;;;;;;43.63;37.75;;;;;;;14.29;100.00;101116.56;5051857;28;20058;-59
2022/04/14 08:25:57;;;;;;;51.95;38.25;;;;;;;14.40;100.00;101122.13;5050219;28;20055;-58
2022/04/14 08:28:23;;;;;;;43.38;36.75;;;;;;;14.50;100.00;101125.16;5034438;28;20127;-59
2022/04/14 08:30:48;;;;;;;50.65;41.45;;;;;;;14.59;100.00;101119.34;5052319;28;20036;-59
2022/04/14 08:33:16;;;;;;;47.30;38.40;;;;;;;14.64;100.00;101115.50;5050296;28;20896;-59
2022/04/14 08:35:41;;;;;;;45.95;35.55;;;;;;;14.66;100.00;101115.44;5031803;28;20028;-58
2022/04/14 08:38:07;;;;;;;40.05;33.92;;;;;;;14.74;100.00;101129.06;5047683;28;20020;-59
2022/04/14 08:40:35;;;;;;;41.03;36.38;;;;;;;14.80;100.00;101123.47;5048101;28;20468;-59
2022/04/14 08:43:03;;;;;;;41.42;36.95;;;;;;;14.86;100.00;101124.91;5047447;28;20024;-59
2022/04/14 08:45:34;;;;;;;49.92;35.42;;;;;;;14.91;100.00;101126.34;5047430;28;20916;-58
2022/04/14 08:48:01;;;;;;;40.88;35.95;;;;;;;14.99;100.00;101126.78;5049122;28;20139;-58
2022/04/14 08:50:28;;;;;;;37.95;33.97;;;;;;;15.17;100.00;101125.72;5048329;28;20917;-58
2022/04/14 08:52:54;;;;;;;48.20;36.72;;;;;;;15.26;100.00;101125.19;5047533;28;20020;-59
2022/04/14 08:55:20;;;;;;;39.08;33.42;;;;;;;15.27;100.00;101123.41;5048595;28;20020;-58
2022/04/14 08:57:46;;;;;;;49.15;35.95;;;;;;;15.19;100.00;101118.53;5048144;28;20054;-59
2022/04/14 09:00:14;;;;;;;42.58;36.92;;;;;;;15.06;100.00;101093.72;5046222;28;20028;-59
2022/04/14 09:02:43;;;;;;;38.67;31.85;;;;;;;15.21;100.00;101114.00;5048314;28;20039;-59
2022/04/14 09:05:09;;;;;;;40.58;36.13;;;;;;;15.29;100.00;101113.56;5047292;28;20028;-59
2022/04/14 09:07:35;;;;;;;37.90;33.72;;;;;;;15.37;100.00;101113.13;5048148;28;20912;-59
2022/04/14 09:10:00;;;;;;;36.15;31.90;;;;;;;15.32;100.00;101113.38;5047501;28;20133;-60
2022/04/14 09:12:27;;;;;;;38.55;30.58;;;;;;;15.34;100.00;101098.28;5046859;28;20016;-58
2022/04/14 09:14:52;;;;;;;40.10;32.85;;;;;;;15.59;100.00;101119.75;5045345;28;20245;-59
2022/04/14 09:17:17;;;;;;;46.92;35.70;;;;;;;15.70;100.00;101090.81;5028654;28;20035;-59
2022/04/14 09:19:43;;;;;;;36.38;28.20;;;;;;;15.89;100.00;101106.44;5028324;28;20032;-58
2022/04/14 09:22:14;;;;;;;38.03;31.58;;;;;;;16.08;100.00;101109.69;5045747;28;20815;-58
2022/04/14 09:24:57;;;;;;;33.58;29.98;;;;;;;16.33;100.00;101101.03;5046524;28;20020;-58
2022/04/14 09:27:34;;;;;;;47.97;32.35;;;;;;;16.62;100.00;101099.25;5045495;28;20036;-59
2022/04/14 09:30:05;;;;;;;32.00;27.70;;;;;;;16.70;100.00;101105.75;5047982;28;20043;-59
2022/04/14 09:32:44;;;;;;;32.03;27.15;;;;;;;16.55;100.00;101068.72;5046579;28;20066;-58
2022/04/14 09:35:17;;;;;;;33.17;23.92;;;;;;;17.06;100.00;101093.72;5030925;28;20947;-58
2022/04/14 09:37:43;;;;;;;33.60;29.48;;;;;;;17.25;100.00;101092.38;5048050;28;20456;-59
2022/04/14 09:40:09;;;;;;;32.55;26.75;;;;;;;16.97;100.00;101039.38;5030153;28;20040;-59
2022/04/14 09:42:42;;;;;;;27.83;23.95;;;;;;;17.25;100.00;101092.38;5046643;28;20024;-59
2022/04/14 09:45:25;;;;;;;27.30;23.80;;;;;;;17.44;100.00;101094.63;5048460;28;20826;-59
2022/04/14 09:47:51;;;;;;;23.67;21.10;;;;;;;17.37;100.00;101080.91;5047020;28;20050;-58
2022/04/14 09:50:32;;;;;;;23.33;20.40;;;;;;;17.43;100.00;101097.41;5046946;28;20230;-58
2022/04/14 09:53:15;;;;;;;25.77;19.63;;;;;;;17.47;100.00;101085.63;5029034;28;20031;-59
2022/04/14 09:55:42;;;;;;;22.98;17.73;;;;;;;17.35;100.00;101089.97;5047264;28;20039;-58
2022/04/14 09:58:18;;;;;;;25.00;19.10;;;;;;;17.20;100.00;101073.22;5045879;28;20032;-58
2022/04/14 10:00:50;;;;;;;23.55;19.13;;;;;;;17.09;100.00;101011.19;5046524;28;20917;-58
2022/04/14 10:03:18;;;;;;;20.65;18.52;;;;;;;17.51;100.00;101065.84;5090579;28;20032;-58
2022/04/14 10:05:49;;;;;;;19.90;16.67;;;;;;;17.40;100.00;101040.03;5083914;28;20090;-59
2022/04/14 10:08:16;;;;;;;23.23;17.35;;;;;;;17.77;100.00;101062.31;5092733;28;20115;-59
2022/04/14 10:10:43;;;;;;;26.48;16.73;;;;;;;18.03;100.00;101074.63;5092777;28;20044;-58
2022/04/14 10:13:10;;;;;;;21.55;15.75;;;;;;;18.35;100.00;101067.03;5090823;28;20498;-58
2022/04/14 10:15:40;;;;;;;17.65;14.68;;;;;;;18.15;100.00;101041.81;5066573;28;20066;-58
2022/04/14 10:18:16;;;;;;;22.33;14.43;;;;;;;18.41;100.00;101068.38;5089442;28;20115;-58
2022/04/14 10:20:43;;;;;;;21.10;17.20;;;;;;;18.62;100.00;101069.53;5092025;28;20034;-58
2022/04/14 10:23:10;;;;;;;18.30;13.60;;;;;;;18.53;100.00;101062.19;5090232;28;20056;-58
2022/04/14 10:25:37;;;;;;;16.08;14.25;;;;;;;18.61;100.00;101062.50;5091719;28;20060;-58
2022/04/14 10:28:04;;;;;;;23.00;15.57;;;;;;;18.64;100.00;101048.97;5092495;28;20036;-58
2022/04/14 10:30:29;;;;;;;20.58;15.65;;;;;;;19.01;100.00;101052.41;5090836;28;20083;-58
2022/04/14 10:32:55;;;;;;;20.92;13.95;;;;;;;19.01;100.00;101055.09;5092599;28;20055;-59
2022/04/14 10:35:31;;;;;;;13.25;11.30;;;;;;;18.62;100.00;101051.72;5092065;28;20039;-58
2022/04/14 10:38:07;;;;;;;16.33;12.55;;;;;;;18.27;100.00;101048.94;5084482;28;20408;-58
2022/04/14 10:40:34;;;;;;;14.40;12.23;;;;;;;17.70;100.00;100997.22;5074166;28;20042;-58
2022/04/14 10:43:01;;;;;;;16.92;14.27;;;;;;;17.70;100.00;101027.31;5074158;28;20056;-58
2022/04/14 10:45:27;;;;;;;20.83;14.23;;;;;;;17.81;100.00;101023.91;5073614;28;20024;-58
2022/04/14 10:47:59;;;;;;;15.77;13.27;;;;;;;18.32;100.00;101049.44;5092134;28;20039;-58
2022/04/14 10:50:29;;;;;;;18.45;16.00;;;;;;;18.30;100.00;101056.72;5088253;28;20038;-58
2022/04/14 10:53:08;;;;;;;23.40;16.35;;;;;;;18.12;100.00;101057.16;5091182;28;20028;-58
2022/04/14 10:55:39;;;;;;;16.63;14.25;;;;;;;18.21;100.00;101054.72;5089220;28;20024;-58
2022/04/14 10:58:05;;;;;;;16.95;13.52;;;;;;;18.64;100.00;101048.97;5074412;28;20027;-58
2022/04/14 11:00:30;;;;;;;15.73;13.30;;;;;;;19.35;100.00;101059.56;5092556;28;20032;-61
2022/04/14 11:03:09;;;;;;;17.95;13.38;;;;;;;19.52;100.00;101063.66;5091143;28;20036;-58